Time;durP1;ratioP1;P1;durP2;ratioP2;P2;SDS_P1;SDS_P2;PMS_P1;PMS_P2;Temp;Humidity;BMP_temperature;BMP_pressure;BME280_temperature;BME280_humidity;BME280_pressure;Samples;Min_cycle;Max_cycle;Signal;HPM_P1;HPM_P2
2021/09/13 00:00:27;;;;;;;0.13;0.13;;;15.70;99.90;;;;;;5048841;28;20086;-82
2021/09/13 00:02:52;;;;;;;0.10;0.10;;;15.50;99.90;;;;;;5036531;28;20091;-81
2021/09/13 00:05:18;;;;;;;0.60;0.27;;;15.60;99.90;;;;;;5057197;28;20065;-81
2021/09/13 00:07:44;;;;;;;0.30;0.30;;;15.50;99.90;;;;;;5046670;28;20556;-81
2021/09/13 00:10:09;;;;;;;0.23;0.20;;;15.50;99.90;;;;;;5053808;28;20139;-81
2021/09/13 00:12:35;;;;;;;0.10;0.10;;;15.40;99.90;;;;;;5051116;28;20036;-81
2021/09/13 00:15:01;;;;;;;5.80;0.47;;;15.40;99.90;;;;;;5033748;28;20064;-81
2021/09/13 00:17:27;;;;;;;0.10;0.10;;;15.50;99.90;;;;;;5053317;28;20118;-82
2021/09/13 00:19:53;;;;;;;0.73;0.37;;;15.50;99.90;;;;;;5045340;28;20276;-82
2021/09/13 00:22:19;;;;;;;0.60;0.60;;;15.50;99.90;;;;;;5047388;28;20761;-82
2021/09/13 00:24:44;;;;;;;0.10;0.10;;;15.40;99.90;;;;;;5054687;28;20025;-82
2021/09/13 00:27:10;;;;;;;0.10;0.10;;;15.20;99.90;;;;;;5049166;28;20597;-82
2021/09/13 00:29:36;;;;;;;0.30;0.30;;;15.20;99.90;;;;;;5046250;28;20032;-82
2021/09/13 00:32:01;;;;;;;0.20;0.20;;;15.20;99.90;;;;;;5045331;28;20039;-82
2021/09/13 00:34:28;;;;;;;0.07;0.07;;;15.20;99.90;;;;;;5045952;28;20033;-82
2021/09/13 00:36:54;;;;;;;0.45;0.30;;;15.20;99.90;;;;;;5049185;28;20413;-81
2021/09/13 00:39:20;;;;;;;1.20;0.53;;;15.30;99.90;;;;;;5067616;28;20025;-82
2021/09/13 00:41:46;;;;;;;0.20;0.20;;;15.30;99.90;;;;;;5060675;28;20123;-82
2021/09/13 00:44:11;;;;;;;0.10;0.10;;;15.10;99.90;;;;;;5050537;28;20075;-82
2021/09/13 00:46:37;;;;;;;0.97;0.53;;;15.20;99.90;;;;;;5033474;28;20041;-82
2021/09/13 00:49:03;;;;;;;0.60;0.60;;;15.00;99.90;;;;;;5055278;28;20036;-82
2021/09/13 00:51:29;;;;;;;0.10;0.10;;;15.00;99.90;;;;;;5045380;28;20025;-82
2021/09/13 00:53:54;;;;;;;0.30;0.30;;;14.90;99.90;;;;;;5048457;28;20041;-82
2021/09/13 00:56:20;;;;;;;0.57;0.30;;;14.90;99.90;;;;;;5055825;28;20040;-82
2021/09/13 00:58:47;;;;;;;0.10;0.10;;;14.80;99.90;;;;;;5041634;28;20069;-82
2021/09/13 01:01:13;;;;;;;0.10;0.10;;;14.90;99.90;;;;;;5046785;28;20041;-82
2021/09/13 01:03:38;;;;;;;1.50;0.77;;;15.10;99.90;;;;;;5043385;28;20090;-82
2021/09/13 01:06:04;;;;;;;0.10;0.10;;;15.10;99.90;;;;;;5041780;28;20040;-82
2021/09/13 01:08:30;;;;;;;0.00;0.00;;;15.10;99.90;;;;;;5055127;28;20025;-82
2021/09/13 01:10:56;;;;;;;0.20;0.20;;;15.10;99.90;;;;;;5049053;28;20081;-81
2021/09/13 01:13:23;;;;;;;0.10;0.10;;;15.00;99.90;;;;;;5053998;28;20119;-81
2021/09/13 01:15:48;;;;;;;0.30;0.30;;;15.00;99.90;;;;;;5057231;28;20791;-81
2021/09/13 01:18:14;;;;;;;0.10;0.10;;;15.00;99.90;;;;;;5045956;28;20060;-81
2021/09/13 01:20:40;;;;;;;0.17;0.10;;;15.00;99.90;;;;;;5047040;28;20419;-81
2021/09/13 01:23:28;;;;;;;0.10;0.10;;;15.00;99.90;;;;;;5048757;28;20111;-81
2021/09/13 01:25:54;;;;;;;0.20;0.10;;;14.90;99.90;;;;;;5042578;28;20044;-81
2021/09/13 01:28:20;;;;;;;0.10;0.10;;;14.90;99.90;;;;;;5046316;28;20041;-81
2021/09/13 01:30:47;;;;;;;0.17;0.17;;;14.90;99.90;;;;;;5043905;28;20414;-81
2021/09/13 01:33:13;;;;;;;0.20;0.20;;;15.00;99.90;;;;;;5042649;28;20028;-80
2021/09/13 01:35:38;;;;;;;0.00;0.00;;;15.00;99.90;;;;;;5044689;28;20090;-83
2021/09/13 01:38:04;;;;;;;0.13;0.13;;;15.10;99.90;;;;;;5030717;28;20512;-83
2021/09/13 01:40:31;;;;;;;0.10;0.10;;;15.00;99.90;;;;;;5049435;28;20037;-83
2021/09/13 01:43:00;;;;;;;0.35;0.35;;;15.00;99.90;;;;;;5045416;28;20071;-83
2021/09/13 01:45:26;;;;;;;0.10;0.10;;;14.90;99.90;;;;;;5045728;28;20075;-83
2021/09/13 01:47:53;;;;;;;0.30;0.30;;;14.80;99.90;;;;;;5036411;28;20067;-84
2021/09/13 01:50:19;;;;;;;;;;;14.80;99.90;;;;;;5049710;28;20033;-84
2021/09/13 01:52:45;;;;;;;0.25;0.25;;;14.70;99.90;;;;;;5051980;28;19971;-84
2021/09/13 01:55:12;;;;;;;0.10;0.10;;;14.50;99.90;;;;;;5050200;28;20029;-84
2021/09/13 01:57:37;;;;;;;1.45;0.57;;;14.60;99.90;;;;;;5050031;28;20064;-84
2021/09/13 02:00:05;;;;;;;0.10;0.10;;;14.60;99.90;;;;;;5049546;28;20072;-84
2021/09/13 02:02:31;;;;;;;0.08;0.08;;;14.60;99.90;;;;;;5048920;28;20057;-82
2021/09/13 02:04:57;;;;;;;0.23;0.23;;;14.70;99.90;;;;;;5049732;28;20060;-80
2021/09/13 02:07:22;;;;;;;0.10;0.10;;;14.60;99.90;;;;;;5049182;28;20536;-80
2021/09/13 02:09:52;;;;;;;0.10;0.10;;;14.60;99.90;;;;;;5052864;28;20025;-80
2021/09/13 02:12:18;;;;;;;0.35;0.35;;;14.50;99.90;;;;;;5052609;28;20412;-80
2021/09/13 02:14:43;;;;;;;0.40;0.40;;;14.60;99.90;;;;;;5048406;28;20032;-81
2021/09/13 02:17:09;;;;;;;0.10;0.10;;;14.70;99.90;;;;;;5058558;28;20511;-82
2021/09/13 02:19:35;;;;;;;0.20;0.20;;;14.70;99.90;;;;;;5054368;28;20036;-82
2021/09/13 02:22:00;;;;;;;0.37;0.37;;;14.50;99.90;;;;;;5051542;28;20025;-82
2021/09/13 02:24:26;;;;;;;0.10;0.10;;;14.50;99.90;;;;;;5047451;28;20068;-82
2021/09/13 02:26:52;;;;;;;0.10;0.10;;;14.50;99.90;;;;;;5054005;28;20450;-81
2021/09/13 02:29:17;;;;;;;0.10;0.10;;;14.40;99.90;;;;;;5045498;28;20523;-82
2021/09/13 02:31:43;;;;;;;0.20;0.20;;;14.40;99.90;;;;;;5028375;28;20051;-81
2021/09/13 02:34:09;;;;;;;0.47;0.47;;;14.40;99.90;;;;;;5064910;28;20107;-82
2021/09/13 02:36:34;;;;;;;0.10;0.10;;;14.40;99.90;;;;;;5055218;28;20032;-80
2021/09/13 02:39:00;;;;;;;0.23;0.23;;;14.40;99.90;;;;;;5049006;28;20082;-81
2021/09/13 02:41:26;;;;;;;0.17;0.17;;;14.40;99.90;;;;;;5046880;28;20033;-81
2021/09/13 02:43:51;;;;;;;0.10;0.10;;;14.30;99.90;;;;;;5048638;28;20489;-81
2021/09/13 02:46:18;;;;;;;0.10;0.10;;;14.20;99.90;;;;;;5049529;28;20036;-81
2021/09/13 02:48:44;;;;;;;;;;;14.20;99.90;;;;;;5053250;28;20032;-81
2021/09/13 02:51:10;;;;;;;0.00;0.00;;;14.30;99.90;;;;;;5051886;28;19935;-82
2021/09/13 02:53:36;;;;;;;0.30;0.30;;;14.20;99.90;;;;;;5054534;28;20029;-81
2021/09/13 02:56:02;;;;;;;0.10;0.10;;;14.10;99.90;;;;;;5047725;28;20029;-81
2021/09/13 02:58:27;;;;;;;3.23;0.60;;;14.10;99.90;;;;;;5047734;28;20037;-82
2021/09/13 03:00:53;;;;;;;0.10;0.10;;;14.10;99.90;;;;;;5048830;28;20071;-82
2021/09/13 03:03:19;;;;;;;0.20;0.20;;;14.00;99.90;;;;;;5047049;28;20040;-81
2021/09/13 03:05:44;;;;;;;0.10;0.10;;;14.00;99.90;;;;;;5054939;28;20076;-81
2021/09/13 03:08:10;;;;;;;0.10;0.10;;;14.00;99.90;;;;;;5046127;28;20048;-81
2021/09/13 03:10:36;;;;;;;0.10;0.10;;;14.00;99.90;;;;;;5049122;28;20049;-82
2021/09/13 03:13:02;;;;;;;0.25;0.25;;;14.00;99.90;;;;;;5048755;28;20040;-82
2021/09/13 03:15:28;;;;;;;0.10;0.10;;;14.10;99.90;;;;;;5051330;28;20040;-82
2021/09/13 03:17:54;;;;;;;0.10;0.10;;;14.20;99.90;;;;;;5049931;28;20035;-81
2021/09/13 03:20:20;;;;;;;0.20;0.20;;;14.20;99.90;;;;;;5050874;28;20036;-81
2021/09/13 03:22:46;;;;;;;0.10;0.10;;;14.30;99.90;;;;;;5055985;28;20041;-81
2021/09/13 03:25:12;;;;;;;0.17;0.17;;;14.30;99.90;;;;;;5048855;28;20271;-81
2021/09/13 03:27:37;;;;;;;0.10;0.10;;;14.20;99.90;;;;;;5046954;28;20571;-81
2021/09/13 03:30:05;;;;;;;0.20;0.20;;;14.20;99.90;;;;;;5044158;28;20060;-81
2021/09/13 03:32:31;;;;;;;0.15;0.15;;;14.20;99.90;;;;;;5051165;28;20501;-81
2021/09/13 03:34:56;;;;;;;0.73;0.73;;;14.20;99.90;;;;;;5052417;28;20033;-82
2021/09/13 03:37:22;;;;;;;0.10;0.10;;;14.30;99.90;;;;;;5050837;28;20028;-82
2021/09/13 03:39:48;;;;;;;0.20;0.20;;;14.20;99.90;;;;;;5047904;28;20089;-82
2021/09/13 03:42:13;;;;;;;0.17;0.10;;;14.40;99.90;;;;;;5044568;28;20481;-81
2021/09/13 03:44:39;;;;;;;3.23;1.67;;;14.50;99.90;;;;;;5042670;28;20072;-81
2021/09/13 03:47:06;;;;;;;0.10;0.10;;;14.40;99.90;;;;;;5043331;28;20033;-82
2021/09/13 03:49:31;;;;;;;0.10;0.10;;;14.40;99.90;;;;;;5055212;28;20025;-82
2021/09/13 03:51:57;;;;;;;0.20;0.20;;;14.30;99.90;;;;;;5047822;28;20047;-82
2021/09/13 03:54:23;;;;;;;0.10;0.10;;;14.20;99.90;;;;;;5054340;28;20453;-82
2021/09/13 03:56:49;;;;;;;0.17;0.17;;;14.20;99.90;;;;;;5046155;28;20067;-81
2021/09/13 03:59:14;;;;;;;0.10;0.10;;;14.10;99.90;;;;;;5051517;28;20108;-81
2021/09/13 04:01:40;;;;;;;0.10;0.10;;;14.10;99.90;;;;;;5055877;28;20036;-81
2021/09/13 04:04:07;;;;;;;0.10;0.10;;;14.10;99.90;;;;;;5050016;28;20410;-80
2021/09/13 04:11:48;;;;;;;0.20;0.20;;;14.00;99.90;;;;;;5046307;28;20052;-80
2021/09/13 04:14:15;;;;;;;0.40;0.40;;;13.90;99.90;;;;;;5048940;28;20014;-80
2021/09/13 04:16:42;;;;;;;2.55;1.35;;;14.00;99.90;;;;;;5058317;28;20061;-80
2021/09/13 04:19:07;;;;;;;0.20;0.20;;;13.90;99.90;;;;;;5046475;28;20063;-82
2021/09/13 04:21:33;;;;;;;0.10;0.10;;;13.90;99.90;;;;;;5044604;28;20061;-80
2021/09/13 04:23:59;;;;;;;15.33;1.10;;;13.90;99.90;;;;;;5045138;28;20090;-78
2021/09/13 04:26:24;;;;;;;0.40;0.40;;;13.90;99.90;;;;;;5045621;28;20044;-79
2021/09/13 04:28:50;;;;;;;0.00;0.00;;;13.90;99.90;;;;;;5044873;28;20033;-79
2021/09/13 04:31:16;;;;;;;0.10;0.10;;;13.90;99.90;;;;;;5050283;28;20078;-79
2021/09/13 04:33:42;;;;;;;0.20;0.20;;;13.90;99.90;;;;;;5054404;28;20036;-79
2021/09/13 04:36:07;;;;;;;0.10;0.10;;;13.90;99.90;;;;;;5050599;28;20123;-79
2021/09/13 04:38:33;;;;;;;0.33;0.33;;;14.00;99.90;;;;;;5029822;28;20112;-80
2021/09/13 04:40:59;;;;;;;0.20;0.20;;;14.00;99.90;;;;;;5054925;28;20052;-82
2021/09/13 04:43:24;;;;;;;0.20;0.20;;;13.90;99.90;;;;;;5029877;28;20033;-81
2021/09/13 04:45:50;;;;;;;0.17;0.17;;;14.00;99.90;;;;;;5047505;28;20104;-81
2021/09/13 04:48:16;;;;;;;0.10;0.10;;;14.10;99.90;;;;;;5044582;28;20045;-83
2021/09/13 04:50:42;;;;;;;2.03;0.70;;;14.10;99.90;;;;;;5053308;28;20037;-80
2021/09/13 04:53:07;;;;;;;0.23;0.23;;;14.10;99.90;;;;;;5047186;28;20090;-81
2021/09/13 04:55:34;;;;;;;0.10;0.10;;;14.00;99.90;;;;;;5053331;28;20394;-81
2021/09/13 04:58:00;;;;;;;0.10;0.10;;;14.00;99.90;;;;;;5045342;28;20071;-82
2021/09/13 05:00:26;;;;;;;0.60;0.60;;;13.90;99.90;;;;;;5044171;28;20060;-83
2021/09/13 05:02:52;;;;;;;0.10;0.10;;;13.90;99.90;;;;;;5051993;28;20060;-82
2021/09/13 05:05:18;;;;;;;0.50;0.50;;;13.90;99.90;;;;;;5044051;28;20425;-82
2021/09/13 05:07:43;;;;;;;1.30;0.53;;;13.90;99.90;;;;;;5046770;28;20048;-82
2021/09/13 05:10:09;;;;;;;0.07;0.07;;;13.90;99.90;;;;;;5066610;28;20481;-83
2021/09/13 05:12:35;;;;;;;0.10;0.10;;;13.80;99.90;;;;;;5047063;28;20120;-82
2021/09/13 05:15:01;;;;;;;0.23;0.23;;;13.90;99.90;;;;;;5034216;28;21442;-83
2021/09/13 05:17:26;;;;;;;0.10;0.10;;;13.90;99.90;;;;;;5044991;28;20039;-82
2021/09/13 05:19:52;;;;;;;0.20;0.20;;;13.80;99.90;;;;;;5052158;28;20051;-83
2021/09/13 05:22:18;;;;;;;0.43;0.43;;;13.80;99.90;;;;;;5066048;28;20509;-85
2021/09/13 05:24:43;;;;;;;0.10;0.10;;;13.70;99.90;;;;;;5058046;28;20520;-86
2021/09/13 05:27:10;;;;;;;0.20;0.20;;;13.70;99.90;;;;;;5061098;28;20055;-87
2021/09/13 05:29:36;;;;;;;0.10;0.10;;;13.70;99.90;;;;;;5038348;28;20531;-88
2021/09/13 05:32:03;;;;;;;0.33;0.33;;;13.80;99.90;;;;;;5041943;28;20090;-86
2021/09/13 05:34:29;;;;;;;0.20;0.20;;;13.80;99.90;;;;;;5033363;28;20032;-87
2021/09/13 05:36:54;;;;;;;1.87;1.07;;;13.80;99.90;;;;;;5056347;28;20026;-85
2021/09/13 05:39:20;;;;;;;0.20;0.20;;;13.90;99.90;;;;;;5049865;28;20045;-85
2021/09/13 05:41:46;;;;;;;0.13;0.13;;;14.00;99.90;;;;;;5049244;28;20585;-85
2021/09/13 05:44:12;;;;;;;0.10;0.10;;;13.90;99.90;;;;;;5056275;28;20550;-85
2021/09/13 05:46:38;;;;;;;0.13;0.13;;;14.10;99.90;;;;;;5053909;28;20040;-85
2021/09/13 05:49:09;;;;;;;0.10;0.10;;;14.60;99.90;;;;;;5050894;28;20036;-87
2021/09/13 05:51:37;;;;;;;0.90;0.85;;;14.80;99.90;;;;;;5035718;28;20040;-83
2021/09/13 05:54:03;;;;;;;0.17;0.17;;;15.30;99.90;;;;;;5031747;28;20079;-83
2021/09/13 05:56:30;;;;;;;0.13;0.13;;;15.70;99.90;;;;;;5047861;28;20041;-84
2021/09/13 05:58:55;;;;;;;0.15;0.15;;;15.80;99.90;;;;;;5063723;28;20060;-88
2021/09/13 06:01:21;;;;;;;0.10;0.10;;;16.20;99.90;;;;;;5049964;28;20082;-86
2021/09/13 06:03:47;;;;;;;1.40;0.23;;;16.50;99.90;;;;;;5049130;28;20039;-85
2021/09/13 06:06:13;;;;;;;0.10;0.10;;;16.80;99.90;;;;;;5047754;28;20040;-88
2021/09/13 06:08:39;;;;;;;0.00;0.00;;;16.90;99.90;;;;;;5047976;28;20039;-87
2021/09/13 06:11:05;;;;;;;0.00;0.00;;;17.60;99.90;;;;;;5047360;28;20049;-85
2021/09/13 06:13:32;;;;;;;0.10;0.10;;;17.90;99.90;;;;;;5048524;28;20049;-84
2021/09/13 06:15:58;;;;;;;0.10;0.10;;;17.90;99.90;;;;;;5049923;28;20036;-86
2021/09/13 06:18:23;;;;;;;0.20;0.20;;;18.30;99.90;;;;;;5047786;28;20060;-86
2021/09/13 06:20:49;;;;;;;0.00;0.00;;;18.40;99.90;;;;;;5047925;28;20040;-84
2021/09/13 06:23:15;;;;;;;0.47;0.20;;;18.30;99.90;;;;;;5047878;28;20488;-83
2021/09/13 06:25:41;;;;;;;0.00;0.00;;;18.60;99.90;;;;;;5047667;28;20056;-83
2021/09/13 06:28:06;;;;;;;0.10;0.10;;;19.00;99.90;;;;;;5049799;28;20612;-83
2021/09/13 06:30:32;;;;;;;0.07;0.07;;;19.40;99.90;;;;;;5046199;28;20035;-84
2021/09/13 06:32:58;;;;;;;0.10;0.10;;;19.70;99.90;;;;;;5047326;28;20031;-83
2021/09/13 06:35:23;;;;;;;0.00;0.00;;;20.00;99.90;;;;;;5047037;28;20098;-82
2021/09/13 06:37:49;;;;;;;0.10;0.10;;;20.50;99.90;;;;;;5046919;28;20065;-82
2021/09/13 06:40:15;;;;;;;0.00;0.00;;;21.50;99.90;;;;;;5049547;28;20410;-82
2021/09/13 06:42:41;;;;;;;0.10;0.10;;;21.00;99.90;;;;;;5046815;28;20029;-80
2021/09/13 06:45:17;;;;;;;0.10;0.10;;;21.00;99.90;;;;;;5047327;28;20486;-80
2021/09/13 06:47:45;;;;;;;0.40;0.30;;;21.70;99.90;;;;;;5047426;28;20071;-80
2021/09/13 06:50:27;;;;;;;0.00;0.00;;;21.60;99.90;;;;;;5062305;28;20529;-80
2021/09/13 06:52:54;;;;;;;0.00;0.00;;;21.30;99.90;;;;;;5031951;28;20495;-80
2021/09/13 06:55:20;;;;;;;0.00;0.00;;;21.20;99.90;;;;;;5049226;28;20055;-80
2021/09/13 06:57:46;;;;;;;0.20;0.20;;;22.10;99.90;;;;;;5047029;28;20547;-80
2021/09/13 07:00:14;;;;;;;0.03;0.03;;;22.30;99.90;;;;;;5047087;28;20037;-80
2021/09/13 07:02:42;;;;;;;0.13;0.13;;;22.70;99.90;;;;;;5046917;28;20033;-80
2021/09/13 07:05:09;;;;;;;0.00;0.00;;;23.10;99.90;;;;;;5047294;28;20029;-80
2021/09/13 07:07:36;;;;;;;0.08;0.08;;;23.40;99.90;;;;;;5046725;28;20076;-80
2021/09/13 07:10:04;;;;;;;0.10;0.10;;;23.50;99.90;;;;;;5048833;28;20041;-80
2021/09/13 07:12:30;;;;;;;18.15;0.93;;;23.30;99.90;;;;;;5046701;28;20520;-80
2021/09/13 07:14:56;;;;;;;0.00;0.00;;;23.00;99.90;;;;;;5046789;28;20025;-80
2021/09/13 07:17:22;;;;;;;0.00;0.00;;;22.50;99.80;;;;;;5047063;28;20024;-80
2021/09/13 07:19:48;;;;;;;0.00;0.00;;;22.20;99.90;;;;;;5046925;28;20030;-80
2021/09/13 07:22:13;;;;;;;0.10;0.10;;;22.40;99.90;;;;;;5048785;28;20033;-80
2021/09/13 07:24:42;;;;;;;0.00;0.00;;;21.90;99.90;;;;;;5046533;28;20036;-80
2021/09/13 07:27:07;;;;;;;0.00;0.00;;;21.70;99.90;;;;;;5028597;28;20029;-80
2021/09/13 07:29:33;;;;;;;0.93;0.13;;;22.10;99.90;;;;;;5029668;28;20036;-80
2021/09/13 07:32:01;;;;;;;0.00;0.00;;;21.80;99.90;;;;;;5046481;28;20061;-80
2021/09/13 07:34:27;;;;;;;0.30;0.20;;;23.40;99.50;;;;;;5029555;28;20342;-80
2021/09/13 07:36:55;;;;;;;0.00;0.00;;;21.80;99.90;;;;;;5047419;28;20139;-80
2021/09/13 07:39:24;;;;;;;0.03;0.00;;;21.80;99.90;;;;;;5046239;28;20045;-80
2021/09/13 07:41:50;;;;;;;0.15;0.15;;;23.20;99.80;;;;;;5060813;28;20036;-80
2021/09/13 07:44:16;;;;;;;1.13;0.23;;;22.90;98.50;;;;;;5045480;28;20028;-80
2021/09/13 07:46:42;;;;;;;0.55;0.45;;;23.90;98.20;;;;;;5035543;28;20087;-80
2021/09/13 07:49:07;;;;;;;0.30;0.30;;;24.40;96.90;;;;;;5048265;28;20071;-80
2021/09/13 07:51:33;;;;;;;0.20;0.07;;;23.80;97.00;;;;;;5045943;28;20056;-80
2021/09/13 07:53:59;;;;;;;0.10;0.10;;;24.60;96.00;;;;;;5046055;28;20037;-80
2021/09/13 07:56:24;;;;;;;0.20;0.20;;;25.30;94.80;;;;;;5046141;28;20047;-80
2021/09/13 07:58:50;;;;;;;0.10;0.10;;;26.40;91.90;;;;;;5028474;28;20049;-80
2021/09/13 08:01:16;;;;;;;0.00;0.00;;;25.60;97.30;;;;;;5043841;28;20025;-80
2021/09/13 08:03:42;;;;;;;1.25;0.10;;;24.40;92.40;;;;;;5045768;28;20079;-80
2021/09/13 08:06:08;;;;;;;0.17;0.10;;;25.00;93.60;;;;;;5045786;28;20094;-80
2021/09/13 08:08:34;;;;;;;0.00;0.00;;;26.40;98.70;;;;;;5045961;28;20295;-80
2021/09/13 08:11:00;;;;;;;;;;;27.80;87.60;;;;;;5046257;28;20037;-80
2021/09/13 08:13:25;;;;;;;;;;;26.20;89.90;;;;;;5047748;28;20356;-80
2021/09/13 08:15:51;;;;;;;0.10;0.00;;;26.00;90.20;;;;;;5046613;28;20441;-80
2021/09/13 08:18:17;;;;;;;0.00;0.00;;;26.20;89.30;;;;;;5045822;28;20537;-80
2021/09/13 08:20:43;;;;;;;0.75;0.28;;;26.90;88.30;;;;;;5045562;28;20406;-80
2021/09/13 08:23:08;;;;;;;0.00;0.00;;;29.30;78.40;;;;;;5045911;28;20102;-80
2021/09/13 08:25:34;;;;;;;0.00;0.00;;;28.80;73.80;;;;;;5061384;28;20525;-80
2021/09/13 08:28:00;;;;;;;0.00;0.00;;;29.30;72.30;;;;;;5047534;28;20459;-80
2021/09/13 08:30:26;;;;;;;0.00;0.00;;;29.10;69.20;;;;;;5045758;28;20053;-80
2021/09/13 08:32:52;;;;;;;;;;;28.80;71.00;;;;;;5045990;28;20063;-80
2021/09/13 08:35:18;;;;;;;;;;;28.00;73.50;;;;;;5046221;28;19916;-80
2021/09/13 08:37:44;;;;;;;0.03;0.03;;;27.40;72.70;;;;;;5045632;28;19917;-80
2021/09/13 08:40:10;;;;;;;0.30;0.20;;;28.70;70.60;;;;;;5047975;28;20033;-80
2021/09/13 08:42:49;;;;;;;0.25;0.25;;;29.30;70.30;;;;;;5045518;28;20021;-80
2021/09/13 08:48:06;;;;;;;0.10;0.10;;;30.80;59.50;;;;;;5045461;28;20032;-80
2021/09/13 08:53:01;;;;;;;0.93;0.35;;;28.90;66.60;;;;;;5045486;28;20108;-80
2021/09/13 08:55:27;;;;;;;0.10;0.10;;;30.60;62.10;;;;;;5046597;28;20033;-80
2021/09/13 08:57:54;;;;;;;0.20;0.13;;;29.90;67.80;;;;;;5046359;28;20033;-81
2021/09/13 09:00:20;;;;;;;0.20;0.20;;;29.10;71.30;;;;;;5045322;28;20041;-80
2021/09/13 09:02:46;;;;;;;0.13;0.13;;;32.00;63.00;;;;;;5045156;28;20401;-80
2021/09/13 09:05:13;;;;;;;0.08;0.00;;;33.90;52.20;;;;;;5045308;28;20033;-80
2021/09/13 09:07:53;;;;;;;0.20;0.20;;;34.90;47.70;;;;;;5045059;28;20041;-81
2021/09/13 09:10:25;;;;;;;0.00;0.00;;;35.30;42.10;;;;;;5043277;28;20060;-80
2021/09/13 09:13:17;;;;;;;0.03;0.03;;;36.20;39.90;;;;;;5044705;28;20040;-80
2021/09/13 09:15:57;;;;;;;0.10;0.05;;;36.00;35.90;;;;;;5042152;28;20128;-80
2021/09/13 09:18:35;;;;;;;0.00;0.00;;;36.60;34.60;;;;;;5028395;28;20029;-80
2021/09/13 09:21:01;;;;;;;0.00;0.00;;;39.30;28.00;;;;;;5060276;28;20502;-80
2021/09/13 09:23:27;;;;;;;0.10;0.10;;;37.20;31.10;;;;;;5060237;28;20028;-80
2021/09/13 09:25:54;;;;;;;0.00;0.00;;;34.40;32.60;;;;;;5045231;28;20122;-81
2021/09/13 09:28:21;;;;;;;0.00;0.00;;;34.10;38.60;;;;;;5046987;28;20041;-80
2021/09/13 09:30:49;;;;;;;0.00;0.00;;;33.30;34.10;;;;;;5045368;28;20064;-80
2021/09/13 09:33:21;;;;;;;0.10;0.10;;;34.70;34.20;;;;;;5043013;28;20473;-80
2021/09/13 09:35:54;;;;;;;0.10;0.10;;;33.80;36.10;;;;;;5045040;28;20037;-81
2021/09/13 09:38:28;;;;;;;0.00;0.00;;;33.80;40.10;;;;;;5044997;28;20025;-80
2021/09/13 09:41:07;;;;;;;0.00;0.00;;;33.40;33.80;;;;;;5029673;28;20108;-81
2021/09/13 09:43:51;;;;;;;0.00;0.00;;;34.80;31.80;;;;;;5027175;28;20108;-80
2021/09/13 09:46:17;;;;;;;0.32;0.15;;;34.40;31.70;;;;;;5042757;28;20025;-80
2021/09/13 09:48:43;;;;;;;0.00;0.00;;;34.20;36.60;;;;;;5044433;28;20398;-80
2021/09/13 09:51:26;;;;;;;0.15;0.15;;;34.70;29.70;;;;;;5044640;28;20033;-80
2021/09/13 09:53:52;;;;;;;0.50;0.50;;;35.00;30.60;;;;;;5044734;28;20029;-80
2021/09/13 09:56:17;;;;;;;0.15;0.10;;;37.30;25.30;;;;;;5044937;28;20024;-81
2021/09/13 09:59:08;;;;;;;0.00;0.00;;;36.10;27.90;;;;;;5044658;28;20037;-80
2021/09/13 10:01:57;;;;;;;2.03;0.30;;;35.40;26.80;;;;;;5042840;28;20068;-80
2021/09/13 10:04:25;;;;;;;0.32;0.32;;;35.90;26.70;;;;;;5042701;28;20025;-80
2021/09/13 10:06:53;;;;;;;0.70;0.43;;;38.20;21.10;;;;;;5046040;28;20029;-81
2021/09/13 10:09:20;;;;;;;0.03;0.03;;;37.10;21.70;;;;;;5048177;28;20154;-81
2021/09/13 10:11:48;;;;;;;0.00;0.00;;;34.40;24.70;;;;;;5048042;28;20037;-80
2021/09/13 10:14:20;;;;;;;0.52;0.47;;;35.60;25.80;;;;;;5048136;28;20432;-80
2021/09/13 10:16:46;;;;;;;0.20;0.20;;;34.30;27.80;;;;;;5048099;28;20454;-80
2021/09/13 10:19:13;;;;;;;1.23;0.20;;;34.40;28.80;;;;;;5049989;28;20440;-80
2021/09/13 10:21:39;;;;;;;0.47;0.20;;;35.30;29.90;;;;;;5047669;28;20132;-80
2021/09/13 10:24:10;;;;;;;0.10;0.10;;;34.10;28.40;;;;;;5047788;28;20119;-81
2021/09/13 10:26:40;;;;;;;0.00;0.00;;;36.10;25.60;;;;;;5047463;28;20037;-80
2021/09/13 10:29:05;;;;;;;0.95;0.17;;;34.60;27.20;;;;;;5046453;28;20037;-80
2021/09/13 10:31:45;;;;;;;0.30;0.22;;;31.80;34.70;;;;;;5048371;28;20021;-81
2021/09/13 10:34:25;;;;;;;0.00;0.00;;;29.40;43.50;;;;;;5049189;28;20029;-80
2021/09/13 10:37:01;;;;;;;1.83;0.20;;;29.90;44.90;;;;;;5047108;28;20057;-80
2021/09/13 10:39:59;;;;;;;0.20;0.20;;;29.50;44.20;;;;;;5047307;28;20037;-80
2021/09/13 10:42:38;;;;;;;0.00;0.00;;;29.60;47.10;;;;;;5046395;28;20338;-80
2021/09/13 10:45:09;;;;;;;0.30;0.20;;;29.00;45.80;;;;;;5047281;28;20508;-80
2021/09/13 10:47:37;;;;;;;0.10;0.10;;;28.10;49.10;;;;;;5047198;28;20128;-80
2021/09/13 10:50:25;;;;;;;0.45;0.28;;;28.80;47.50;;;;;;5047132;28;20033;-81
2021/09/13 10:52:55;;;;;;;0.40;0.28;;;28.40;48.40;;;;;;5031670;28;20025;-80
2021/09/13 10:55:27;;;;;;;0.40;0.30;;;28.80;48.00;;;;;;5027437;28;20029;-78
2021/09/13 10:58:27;;;;;;;0.15;0.15;;;28.50;48.20;;;;;;5048081;28;20025;-78
2021/09/13 11:00:53;;;;;;;0.63;0.28;;;28.50;49.90;;;;;;5044897;28;20064;-78
2021/09/13 11:03:34;;;;;;;0.17;0.13;;;28.40;51.20;;;;;;5047009;28;20041;-78
2021/09/13 11:06:05;;;;;;;0.20;0.20;;;28.70;49.20;;;;;;5046646;28;20807;-78
2021/09/13 11:08:32;;;;;;;0.22;0.22;;;28.60;50.00;;;;;;5047204;28;20055;-78
2021/09/13 11:10:58;;;;;;;0.20;0.10;;;28.60;50.20;;;;;;5047300;28;20698;-78
2021/09/13 11:13:24;;;;;;;0.10;0.10;;;27.60;51.30;;;;;;5048603;28;20040;-78
2021/09/13 11:15:50;;;;;;;0.77;0.25;;;27.80;51.20;;;;;;5047840;28;20032;-78
2021/09/13 11:18:32;;;;;;;;;;;27.60;51.60;;;;;;5047207;28;20036;-78
2021/09/13 11:21:27;;;;;;;1.00;0.52;;;27.60;52.00;;;;;;5046848;28;20247;-78
2021/09/13 11:24:00;;;;;;;0.03;0.03;;;28.10;51.20;;;;;;5046792;28;20455;-78
2021/09/13 11:26:31;;;;;;;0.00;0.00;;;28.20;51.00;;;;;;5046731;28;20025;-78
2021/09/13 11:29:15;;;;;;;0.10;0.10;;;28.30;51.00;;;;;;5046790;28;20037;-78
2021/09/13 11:31:52;;;;;;;0.77;0.20;;;28.00;51.20;;;;;;5046478;28;20025;-78
2021/09/13 11:34:20;;;;;;;0.40;0.40;;;27.60;53.40;;;;;;5044813;28;20036;-78
2021/09/13 11:37:00;;;;;;;0.00;0.00;;;27.50;53.10;;;;;;5046668;28;20040;-78
2021/09/13 11:39:38;;;;;;;0.03;0.03;;;27.80;52.70;;;;;;5046256;28;20114;-78
2021/09/13 11:42:25;;;;;;;0.20;0.20;;;28.20;53.20;;;;;;5046270;28;20448;-78
2021/09/13 11:44:55;;;;;;;0.15;0.15;;;28.40;51.70;;;;;;5046319;28;20017;-78
2021/09/13 11:47:27;;;;;;;0.00;0.00;;;28.50;51.00;;;;;;5028359;28;20033;-78
2021/09/13 11:49:55;;;;;;;0.10;0.10;;;28.20;52.60;;;;;;5030909;28;20561;-78
2021/09/13 11:52:33;;;;;;;0.10;0.10;;;28.20;51.50;;;;;;5048139;28;20398;-78
2021/09/13 11:55:06;;;;;;;0.00;0.00;;;28.60;51.00;;;;;;5047929;28;20078;-78
2021/09/13 11:57:34;;;;;;;0.00;0.00;;;28.00;52.20;;;;;;5045940;28;20425;-77
2021/09/13 12:00:02;;;;;;;0.10;0.10;;;28.00;51.30;;;;;;5046015;28;20033;-78
2021/09/13 12:02:29;;;;;;;0.30;0.30;;;27.40;53.00;;;;;;5029182;28;20032;-78
2021/09/13 12:04:56;;;;;;;0.22;0.22;;;27.50;53.70;;;;;;5046030;28;20028;-77
2021/09/13 12:07:22;;;;;;;0.50;0.50;;;27.40;53.20;;;;;;5047458;28;20029;-78
2021/09/13 12:09:50;;;;;;;0.52;0.40;;;27.60;53.80;;;;;;5046189;28;20029;-78
2021/09/13 12:12:24;;;;;;;0.10;0.10;;;27.80;53.80;;;;;;5045722;28;20041;-78
2021/09/13 12:14:59;;;;;;;0.32;0.32;;;28.10;52.50;;;;;;5045741;28;20036;-78
2021/09/13 12:17:41;;;;;;;0.00;0.00;;;27.90;52.40;;;;;;5045731;28;20476;-78
2021/09/13 12:20:24;;;;;;;0.00;0.00;;;28.30;52.60;;;;;;5045632;28;20482;-77
2021/09/13 12:23:20;;;;;;;0.20;0.20;;;28.30;52.00;;;;;;5029831;28;20036;-78
2021/09/13 12:25:48;;;;;;;0.10;0.10;;;28.80;49.90;;;;;;5039585;28;20115;-78
2021/09/13 12:28:24;;;;;;;0.00;0.00;;;28.70;50.30;;;;;;5047580;28;20052;-78
2021/09/13 12:30:58;;;;;;;0.05;0.05;;;28.40;51.40;;;;;;5044578;28;20071;-78
2021/09/13 12:33:46;;;;;;;0.57;0.57;;;28.00;52.90;;;;;;5045445;28;20124;-78
2021/09/13 12:36:27;;;;;;;0.22;0.22;;;28.50;51.20;;;;;;5045351;28;20025;-78
2021/09/13 12:38:55;;;;;;;0.10;0.10;;;27.90;52.40;;;;;;5045324;28;20523;-78
2021/09/13 12:41:34;;;;;;;0.20;0.20;;;28.10;51.90;;;;;;5045434;28;20025;-77
2021/09/13 12:44:11;;;;;;;0.30;0.20;;;28.60;50.60;;;;;;5030770;28;20040;-78
2021/09/13 12:46:48;;;;;;;0.20;0.20;;;28.90;49.90;;;;;;5045338;28;20040;-78
2021/09/13 12:49:14;;;;;;;0.22;0.22;;;29.20;50.60;;;;;;5047693;28;20064;-78
2021/09/13 12:51:40;;;;;;;0.13;0.13;;;29.00;49.00;;;;;;5045161;28;20510;-78
2021/09/13 12:54:06;;;;;;;;;;;29.00;49.40;;;;;;5045632;28;20398;-78
2021/09/13 12:56:43;;;;;;;0.90;0.38;;;29.40;47.50;;;;;;5045148;28;19912;-78
2021/09/13 12:59:20;;;;;;;0.20;0.20;;;29.40;47.50;;;;;;5060904;28;20159;-77
2021/09/13 13:01:47;;;;;;;0.15;0.15;;;28.80;49.80;;;;;;5045085;28;20021;-78
2021/09/13 13:04:15;;;;;;;0.10;0.10;;;28.50;50.30;;;;;;5047135;28;20017;-78